Time;durP1;ratioP1;P1;durP2;ratioP2;P2;SDS_P1;SDS_P2;PMS_P1;PMS_P2;Temp;Humidity;BMP_temperature;BMP_pressure;BME280_temperature;BME280_humidity;BME280_pressure;Samples;Min_cycle;Max_cycle;Signal;HPM_P1;HPM_P2
2021/11/22 00:00:11;;;;;;;;;300.50;271.75;10.70;61.90;;;;;;5041030;28;8886;-65
2021/11/22 00:02:38;;;;;;;;;269.75;257.00;10.60;61.70;;;;;;5053632;28;8830;-65
2021/11/22 00:05:04;;;;;;;;;271.50;257.00;10.40;62.80;;;;;;5051891;28;8805;-65
2021/11/22 00:07:30;;;;;;;;;282.50;267.00;10.60;62.20;;;;;;5058352;28;8769;-66
2021/11/22 00:09:56;;;;;;;;;268.50;249.00;10.60;62.00;;;;;;5057737;28;8887;-65
2021/11/22 00:12:22;;;;;;;;;270.75;251.25;10.50;61.80;;;;;;5057321;28;9503;-66
2021/11/22 00:14:48;;;;;;;;;260.50;253.75;10.30;63.30;;;;;;5057518;28;8795;-66
2021/11/22 00:17:14;;;;;;;;;266.25;250.25;10.30;63.40;;;;;;5056633;28;8766;-65
2021/11/22 00:19:40;;;;;;;;;266.50;260.50;10.20;63.70;;;;;;5057872;28;8791;-66
2021/11/22 00:22:07;;;;;;;;;271.25;250.75;10.30;62.70;;;;;;5058106;28;8763;-65
2021/11/22 00:24:33;;;;;;;;;265.25;247.75;10.50;62.20;;;;;;5057405;28;8783;-66
2021/11/22 00:26:59;;;;;;;;;263.00;243.00;10.60;61.00;;;;;;5057837;28;8775;-65
2021/11/22 00:29:25;;;;;;;;;269.25;249.25;10.50;61.30;;;;;;5057639;28;8763;-65
2021/11/22 00:31:52;;;;;;;;;256.50;236.75;10.50;61.00;;;;;;5056856;28;8786;-65
2021/11/22 00:34:18;;;;;;;;;255.25;242.25;10.50;61.30;;;;;;5057602;28;8831;-65
2021/11/22 00:36:44;;;;;;;;;253.50;244.25;10.40;61.80;;;;;;5057165;28;8797;-65
2021/11/22 00:39:10;;;;;;;;;256.75;238.00;10.20;62.20;;;;;;5057563;28;9397;-65
2021/11/22 00:41:36;;;;;;;;;234.00;216.25;10.40;62.90;;;;;;5056898;28;8803;-65
2021/11/22 00:44:02;;;;;;;;;212.25;200.50;10.70;62.00;;;;;;5056988;28;8775;-65
2021/11/22 00:46:28;;;;;;;;;222.25;210.75;10.60;63.80;;;;;;5054955;28;8906;-65
2021/11/22 00:48:54;;;;;;;;;203.00;193.50;10.50;64.80;;;;;;5049813;28;9451;-65
2021/11/22 00:51:20;;;;;;;;;213.75;200.00;10.40;65.30;;;;;;5053570;28;8793;-65
2021/11/22 00:53:47;;;;;;;;;225.50;210.25;10.10;66.30;;;;;;5055509;28;8933;-65
2021/11/22 00:56:16;;;;;;;;;211.25;199.00;10.10;66.20;;;;;;5055330;28;8802;-66
2021/11/22 00:58:43;;;;;;;;;202.50;194.50;10.20;66.50;;;;;;5056578;28;8775;-65
2021/11/22 01:01:09;;;;;;;;;182.75;177.75;10.50;65.20;;;;;;5056770;28;8755;-65
2021/11/22 01:03:35;;;;;;;;;164.25;159.50;10.60;64.40;;;;;;5057086;28;8775;-65
2021/11/22 01:06:00;;;;;;;;;163.50;160.00;10.40;64.60;;;;;;5056231;28;8771;-66
2021/11/22 01:08:26;;;;;;;;;152.25;151.25;10.30;64.80;;;;;;5056942;28;8848;-65
2021/11/22 01:10:52;;;;;;;;;173.00;168.50;10.50;64.00;;;;;;5056561;28;8892;-65
2021/11/22 01:13:19;;;;;;;;;149.50;145.25;10.40;64.00;;;;;;5056802;28;8815;-65
2021/11/22 01:15:45;;;;;;;;;149.75;129.00;10.30;64.40;;;;;;5056799;28;8751;-66
2021/11/22 01:18:11;;;;;;;;;156.75;152.00;10.00;65.20;;;;;;5056113;28;8759;-66
2021/11/22 01:20:37;;;;;;;;;147.50;138.00;10.40;64.00;;;;;;5056990;28;8897;-66
2021/11/22 01:23:10;;;;;;;;;152.25;148.25;10.60;62.80;;;;;;5056960;28;8774;-65
2021/11/22 01:25:37;;;;;;;;;147.25;143.50;10.80;62.00;;;;;;5056235;28;8781;-65
2021/11/22 01:28:02;;;;;;;;;138.50;136.25;10.70;62.20;;;;;;5056820;28;8763;-65
2021/11/22 01:30:29;;;;;;;;;145.25;140.75;10.90;61.40;;;;;;5056530;28;8763;-65
2021/11/22 01:32:55;;;;;;;;;129.50;116.25;10.70;61.90;;;;;;5056423;28;8813;-65
2021/11/22 01:35:21;;;;;;;;;149.00;137.25;10.80;61.60;;;;;;5056695;28;8771;-66
2021/11/22 01:37:48;;;;;;;;;137.75;132.00;10.80;61.60;;;;;;5056702;28;8755;-66
2021/11/22 01:40:17;;;;;;;;;134.25;129.75;10.80;61.30;;;;;;5055867;28;8763;-65
2021/11/22 01:42:44;;;;;;;;;137.25;134.75;10.80;61.10;;;;;;5056407;28;8763;-65
2021/11/22 01:45:15;;;;;;;;;139.75;125.50;10.60;61.50;;;;;;5056482;28;8805;-65
2021/11/22 01:47:42;;;;;;;;;130.00;124.25;10.50;62.00;;;;;;5056015;28;8905;-65
2021/11/22 01:50:13;;;;;;;;;119.50;116.00;10.30;62.50;;;;;;5056650;28;8992;-66
2021/11/22 01:52:39;;;;;;;;;133.00;129.75;10.30;62.60;;;;;;5056050;28;8771;-66
2021/11/22 01:55:08;;;;;;;;;121.50;120.00;10.20;62.50;;;;;;5056125;28;8755;-65
2021/11/22 01:57:34;;;;;;;;;127.25;121.75;10.10;63.30;;;;;;5056288;28;8799;-65
2021/11/22 02:00:05;;;;;;;;;126.25;122.75;10.10;63.30;;;;;;5056075;28;9462;-65
2021/11/22 02:02:30;;;;;;;;;120.00;118.25;10.50;61.80;;;;;;5056038;28;8778;-65
2021/11/22 02:04:56;;;;;;;;;120.00;118.75;9.90;63.00;;;;;;5055872;28;8771;-65
2021/11/22 02:07:24;;;;;;;;;122.25;120.25;9.50;64.10;;;;;;5055763;28;8791;-65
2021/11/22 02:09:50;;;;;;;;;128.50;124.00;9.50;64.30;;;;;;5055853;28;8784;-65
2021/11/22 02:12:15;;;;;;;;;118.75;118.75;9.80;63.40;;;;;;5055408;28;8775;-65
2021/11/22 02:14:41;;;;;;;;;121.25;119.50;9.60;64.10;;;;;;5055580;28;8807;-65
2021/11/22 02:17:09;;;;;;;;;105.00;103.25;9.80;63.50;;;;;;5055539;28;8795;-65
2021/11/22 02:19:38;;;;;;;;;114.25;112.50;9.70;63.50;;;;;;5055832;28;8790;-65
2021/11/22 02:22:04;;;;;;;;;117.50;114.25;9.40;64.80;;;;;;5055878;28;8767;-65
2021/11/22 02:24:30;;;;;;;;;110.50;105.75;9.70;63.80;;;;;;5055608;28;9476;-66
2021/11/22 02:26:56;;;;;;;;;105.00;102.75;9.90;62.60;;;;;;5055427;28;8890;-65
2021/11/22 02:29:22;;;;;;;;;105.00;102.75;9.80;62.80;;;;;;5054306;28;8810;-65
2021/11/22 02:31:48;;;;;;;;;106.25;104.25;10.00;62.10;;;;;;5055416;28;8771;-65
2021/11/22 02:34:14;;;;;;;;;108.00;103.75;10.10;61.60;;;;;;5055412;28;8802;-65
2021/11/22 02:36:40;;;;;;;;;102.25;101.50;10.00;61.90;;;;;;5055247;28;8862;-65
2021/11/22 02:39:07;;;;;;;;;114.75;111.00;9.80;62.90;;;;;;5055302;28;8786;-65
2021/11/22 02:41:34;;;;;;;;;113.75;113.00;9.90;62.80;;;;;;5054960;28;8759;-65
2021/11/22 02:44:00;;;;;;;;;109.75;106.50;9.80;62.80;;;;;;5055298;28;8801;-65
2021/11/22 02:46:26;;;;;;;;;103.25;102.75;9.80;62.70;;;;;;5055342;28;8755;-65
2021/11/22 02:48:52;;;;;;;;;109.75;107.75;9.40;63.90;;;;;;5054896;28;8799;-65
2021/11/22 02:51:18;;;;;;;;;105.00;102.00;9.50;63.80;;;;;;5055329;28;8834;-65
2021/11/22 02:53:43;;;;;;;;;113.75;111.50;9.70;63.00;;;;;;5054845;28;9434;-65
2021/11/22 02:56:09;;;;;;;;;110.75;108.00;9.80;62.40;;;;;;5055099;28;8774;-65
2021/11/22 02:58:40;;;;;;;;;114.75;111.75;9.80;62.70;;;;;;5054301;28;8763;-65
2021/11/22 03:01:08;;;;;;;;;129.00;125.50;9.90;62.00;;;;;;5054861;28;8766;-65
2021/11/22 03:03:34;;;;;;;;;136.75;127.50;10.20;61.30;;;;;;5034839;28;9486;-65
2021/11/22 03:06:06;;;;;;;;;131.25;123.50;10.10;61.30;;;;;;5034858;28;8761;-66
2021/11/22 03:08:32;;;;;;;;;153.25;143.75;10.00;61.20;;;;;;5035096;28;8773;-65
2021/11/22 03:10:57;;;;;;;;;160.00;144.25;9.40;62.80;;;;;;5034946;28;8790;-65
2021/11/22 03:13:23;;;;;;;;;130.75;127.00;9.30;63.40;;;;;;5034621;28;8809;-65
2021/11/22 03:15:49;;;;;;;;;115.75;111.50;9.20;64.00;;;;;;5050582;28;8779;-65
2021/11/22 03:18:15;;;;;;;;;160.50;156.25;9.20;63.80;;;;;;5054804;28;8771;-65
2021/11/22 03:20:41;;;;;;;;;184.50;179.25;9.20;63.70;;;;;;5054707;28;8811;-65
2021/11/22 03:23:07;;;;;;;;;166.25;161.75;9.30;63.20;;;;;;5054428;28;8794;-65
2021/11/22 03:25:32;;;;;;;;;164.25;159.00;8.90;64.70;;;;;;5054718;28;8806;-65
2021/11/22 03:27:59;;;;;;;;;188.50;182.75;8.10;67.60;;;;;;5054587;28;8790;-65
2021/11/22 03:30:24;;;;;;;;;197.25;186.75;8.00;68.10;;;;;;5054315;28;8802;-65
2021/11/22 03:32:50;;;;;;;;;216.50;204.50;8.20;67.60;;;;;;5054497;28;8803;-65
2021/11/22 03:35:16;;;;;;;;;194.00;186.00;8.70;65.80;;;;;;5054424;28;8770;-65
2021/11/22 03:37:43;;;;;;;;;191.00;178.25;8.90;64.70;;;;;;5054554;28;8775;-65
2021/11/22 03:40:10;;;;;;;;;182.25;174.25;9.00;64.50;;;;;;5054158;28;8775;-65
2021/11/22 03:42:40;;;;;;;;;203.00;191.75;9.20;63.50;;;;;;5054158;28;8763;-65
2021/11/22 03:45:09;;;;;;;;;208.00;190.25;9.20;63.40;;;;;;5054170;28;8777;-65
2021/11/22 03:47:35;;;;;;;;;181.50;170.50;9.30;62.70;;;;;;5053471;28;8872;-65
2021/11/22 03:50:02;;;;;;;;;184.50;177.00;9.30;62.40;;;;;;5054257;28;9442;-65
2021/11/22 03:52:28;;;;;;;;;178.67;176.33;9.30;62.20;;;;;;5054253;28;8787;-65
2021/11/22 03:54:54;;;;;;;;;152.00;149.50;9.50;62.20;;;;;;5053653;28;8795;-65
2021/11/22 03:57:19;;;;;;;;;135.75;133.25;9.60;61.70;;;;;;5054339;28;8763;-65
2021/11/22 03:59:46;;;;;;;;;147.50;141.75;9.70;62.20;;;;;;5054348;28;8876;-65
2021/11/22 04:02:12;;;;;;;;;127.75;125.75;9.60;62.80;;;;;;5054421;28;8783;-65
2021/11/22 04:04:38;;;;;;;;;134.75;131.75;9.30;63.60;;;;;;5054055;28;8901;-65
2021/11/22 04:07:04;;;;;;;;;118.50;116.75;9.00;64.60;;;;;;5053998;28;8877;-65
2021/11/22 04:09:31;;;;;;;;;129.75;122.00;9.40;63.90;;;;;;5053500;28;8775;-65
2021/11/22 04:11:56;;;;;;;;;108.75;108.75;9.60;63.60;;;;;;5053924;28;9560;-65
2021/11/22 04:14:22;;;;;;;;;122.75;117.50;9.50;65.00;;;;;;5054081;28;8802;-66
2021/11/22 04:16:50;;;;;;;;;118.25;116.25;9.40;66.00;;;;;;5053920;28;8799;-65
2021/11/22 04:19:16;;;;;;;;;107.00;104.25;9.70;64.60;;;;;;5054116;28;8798;-65
2021/11/22 04:21:42;;;;;;;;;113.25;110.75;10.00;63.40;;;;;;5053605;28;8791;-65
2021/11/22 04:24:08;;;;;;;;;113.25;110.50;10.20;63.00;;;;;;5054071;28;8775;-66
2021/11/22 04:26:34;;;;;;;;;106.50;103.50;10.10;62.90;;;;;;5053730;28;8775;-65
2021/11/22 04:29:00;;;;;;;;;107.25;105.00;10.00;63.30;;;;;;5054098;28;8763;-65
2021/11/22 04:31:26;;;;;;;;;99.25;98.25;9.80;64.20;;;;;;5053780;28;8783;-66
2021/11/22 04:33:52;;;;;;;;;111.50;109.50;9.80;64.50;;;;;;5053935;28;8799;-66
2021/11/22 04:36:18;;;;;;;;;106.25;104.75;9.90;64.30;;;;;;5053688;28;8799;-66
2021/11/22 04:38:44;;;;;;;;;114.25;110.50;9.90;64.40;;;;;;5053129;28;8794;-65
2021/11/22 04:41:09;;;;;;;;;118.25;115.25;9.80;65.20;;;;;;5053166;28;8816;-65
2021/11/22 04:43:35;;;;;;;;;102.75;99.75;9.50;66.40;;;;;;5053741;28;8812;-66
2021/11/22 04:46:01;;;;;;;;;99.00;96.25;9.60;65.40;;;;;;5053446;28;8787;-66
2021/11/22 04:48:27;;;;;;;;;117.75;111.75;9.50;65.50;;;;;;5053656;28;8827;-66
2021/11/22 04:50:53;;;;;;;;;123.00;119.75;9.40;65.30;;;;;;5053993;28;8868;-66
2021/11/22 04:53:19;;;;;;;;;113.25;111.75;9.40;64.80;;;;;;5055485;28;8803;-66
2021/11/22 04:55:45;;;;;;;;;111.50;109.75;9.50;64.70;;;;;;5057313;28;8732;-66
2021/11/22 04:58:11;;;;;;;;;117.50;113.25;9.30;66.00;;;;;;5057194;28;8767;-66
2021/11/22 05:00:37;;;;;;;;;106.75;102.50;9.00;67.00;;;;;;5056548;28;8767;-66
2021/11/22 05:03:05;;;;;;;;;104.25;100.50;9.10;66.80;;;;;;5056861;28;8782;-66
2021/11/22 05:05:31;;;;;;;;;108.00;102.50;8.80;67.90;;;;;;5055642;28;8856;-66
2021/11/22 05:07:57;;;;;;;;;102.00;100.00;8.70;68.80;;;;;;5057219;28;8767;-66
2021/11/22 05:10:28;;;;;;;;;101.25;98.25;9.00;67.70;;;;;;5057368;28;9473;-66
2021/11/22 05:12:54;;;;;;;;;96.00;95.75;9.50;66.60;;;;;;5055930;28;8810;-65
2021/11/22 05:15:20;;;;;;;;;102.50;97.00;9.40;66.60;;;;;;5056866;28;8755;-64
2021/11/22 05:17:46;;;;;;;;;92.00;86.25;9.30;67.20;;;;;;5056543;28;8863;-65
2021/11/22 05:20:12;;;;;;;;;98.00;94.50;9.10;67.40;;;;;;5056837;28;8819;-64
2021/11/22 05:22:38;;;;;;;;;94.25;90.25;9.00;68.10;;;;;;5056944;28;8791;-64
2021/11/22 05:25:05;;;;;;;;;94.50;89.25;8.90;68.70;;;;;;5056485;28;8813;-65
2021/11/22 05:27:31;;;;;;;;;95.00;89.75;8.90;68.60;;;;;;5056779;28;8775;-65
2021/11/22 05:29:57;;;;;;;;;95.25;82.25;8.90;68.60;;;;;;5056499;28;8775;-65
2021/11/22 05:32:24;;;;;;;;;101.50;99.50;8.90;68.60;;;;;;5056414;28;8767;-64
2021/11/22 05:34:53;;;;;;;;;120.25;116.00;9.00;67.50;;;;;;5056385;28;8872;-64
2021/11/22 05:37:20;;;;;;;;;116.50;113.25;8.80;68.20;;;;;;5056515;28;8771;-65
2021/11/22 05:39:47;;;;;;;;;106.25;102.75;9.00;66.90;;;;;;5054232;28;8799;-65
2021/11/22 05:42:13;;;;;;;;;126.25;122.25;9.30;67.20;;;;;;5053337;28;8872;-65
2021/11/22 05:44:39;;;;;;;;;119.50;117.50;9.00;66.90;;;;;;5055304;28;8798;-65
2021/11/22 05:47:07;;;;;;;;;115.75;107.00;8.90;67.60;;;;;;5054904;28;8798;-65
2021/11/22 05:49:35;;;;;;;;;110.25;110.25;9.00;67.20;;;;;;5053651;28;10711;-65
2021/11/22 05:52:03;;;;;;;;;106.00;104.50;9.00;67.70;;;;;;5053414;28;8786;-65
2021/11/22 05:54:31;;;;;;;;;106.75;104.25;9.10;68.30;;;;;;5054059;28;8815;-65
2021/11/22 05:56:58;;;;;;;;;100.25;98.50;9.10;68.20;;;;;;5054875;28;8815;-65
2021/11/22 05:59:24;;;;;;;;;114.50;108.00;9.40;66.70;;;;;;5055336;28;8767;-65
2021/11/22 06:01:51;;;;;;;;;121.50;117.25;9.10;67.40;;;;;;5056109;28;9430;-65
2021/11/22 06:04:17;;;;;;;;;125.25;121.50;9.00;67.90;;;;;;5056052;28;8787;-69
2021/11/22 06:06:42;;;;;;;;;125.00;119.50;9.40;66.20;;;;;;5055584;28;8863;-67
2021/11/22 06:09:08;;;;;;;;;107.25;105.75;9.60;65.20;;;;;;5054938;28;8795;-66
2021/11/22 06:11:34;;;;;;;;;102.00;101.25;9.80;63.90;;;;;;5053891;28;8883;-69
2021/11/22 06:14:00;;;;;;;;;101.00;87.00;9.90;63.70;;;;;;5054664;28;8810;-69
2021/11/22 06:16:26;;;;;;;;;109.75;108.25;9.90;64.20;;;;;;5055697;28;8767;-67
2021/11/22 06:18:52;;;;;;;;;123.25;122.25;10.00;63.80;;;;;;5055202;28;8786;-69
2021/11/22 06:21:17;;;;;;;;;111.25;110.25;9.80;63.80;;;;;;5055487;28;9493;-67
2021/11/22 06:23:43;;;;;;;;;100.50;99.00;9.90;64.20;;;;;;5055834;28;8796;-69
2021/11/22 06:26:09;;;;;;;;;130.00;126.25;9.90;64.10;;;;;;5055244;28;8775;-69
2021/11/22 06:28:35;;;;;;;;;122.50;119.00;10.00;63.50;;;;;;5055671;28;8910;-68
2021/11/22 06:31:01;;;;;;;;;278.50;258.25;9.90;63.40;;;;;;5055291;28;8775;-69
2021/11/22 06:33:27;;;;;;;;;279.50;259.25;9.90;63.30;;;;;;5055178;28;8811;-66
2021/11/22 06:35:52;;;;;;;;;299.25;293.00;10.00;62.90;;;;;;5055237;28;8828;-67
2021/11/22 06:38:18;;;;;;;;;288.00;271.25;9.70;63.90;;;;;;5055428;28;8782;-67
2021/11/22 06:40:45;;;;;;;;;260.25;243.75;9.80;63.90;;;;;;5055083;28;8766;-70
2021/11/22 06:43:11;;;;;;;;;261.25;241.75;9.80;64.00;;;;;;5055386;28;8793;-68
2021/11/22 06:45:38;;;;;;;;;267.50;252.25;10.10;62.90;;;;;;5055155;28;8791;-69
2021/11/22 06:48:04;;;;;;;;;259.50;250.50;10.30;62.20;;;;;;5054474;28;8795;-68
2021/11/22 06:50:31;;;;;;;;;263.75;241.00;10.20;62.20;;;;;;5055197;28;8819;-67
2021/11/22 06:52:57;;;;;;;;;217.75;205.25;10.30;62.10;;;;;;5053366;28;8811;-68
2021/11/22 06:55:23;;;;;;;;;198.75;192.75;10.40;62.30;;;;;;5054484;28;8820;-69
2021/11/22 06:57:49;;;;;;;;;258.50;239.50;10.60;62.20;;;;;;5054826;28;9513;-67
2021/11/22 07:00:16;;;;;;;;;223.75;220.75;10.50;62.30;;;;;;5054519;28;8787;-69
2021/11/22 07:02:42;;;;;;;;;194.50;181.25;10.80;61.90;;;;;;5054803;28;8751;-69
2021/11/22 07:05:10;;;;;;;;;184.75;180.00;10.90;61.80;;;;;;5054751;28;8797;-70
2021/11/22 07:07:36;;;;;;;;;179.25;171.75;10.70;62.40;;;;;;5054955;28;8787;-70
2021/11/22 07:10:03;;;;;;;;;159.00;143.25;10.80;62.40;;;;;;5053951;28;8771;-70
2021/11/22 07:12:28;;;;;;;;;154.25;149.50;10.90;62.00;;;;;;5054647;28;8836;-67
2021/11/22 07:14:54;;;;;;;;;154.50;147.75;10.50;63.10;;;;;;5054088;28;8795;-70
2021/11/22 07:17:20;;;;;;;;;136.50;130.25;10.60;63.70;;;;;;5054700;28;8779;-70
2021/11/22 07:19:46;;;;;;;;;129.25;128.50;10.90;62.70;;;;;;5053370;28;8833;-70
2021/11/22 07:22:13;;;;;;;;;128.50;126.75;11.40;61.10;;;;;;5054460;28;8859;-67
2021/11/22 07:24:40;;;;;;;;;137.75;134.75;11.50;60.50;;;;;;5053623;28;8802;-67
2021/11/22 07:27:07;;;;;;;;;155.25;147.50;11.50;60.30;;;;;;5054447;28;8782;-70
2021/11/22 07:29:33;;;;;;;;;160.75;153.75;11.50;60.50;;;;;;5052028;28;8767;-70
2021/11/22 07:31:59;;;;;;;;;157.00;146.00;11.60;60.30;;;;;;5052981;28;8883;-70
2021/11/22 07:34:25;;;;;;;;;154.75;151.25;11.70;60.20;;;;;;5052053;28;8822;-70
2021/11/22 07:36:52;;;;;;;;;150.50;148.50;11.80;60.10;;;;;;5050164;28;8807;-71
2021/11/22 07:39:17;;;;;;;;;137.25;130.75;11.80;60.30;;;;;;5054240;28;8787;-73
2021/11/22 07:41:44;;;;;;;;;137.00;134.25;11.90;60.00;;;;;;5053946;28;8778;-65
2021/11/22 07:44:10;;;;;;;;;120.25;110.00;11.80;60.20;;;;;;5054110;28;8897;-66
2021/11/22 07:46:36;;;;;;;;;116.00;111.75;11.70;60.20;;;;;;5053348;28;8890;-66
2021/11/22 07:49:02;;;;;;;;;115.00;111.25;11.40;61.50;;;;;;5053777;28;8806;-65
2021/11/22 07:51:28;;;;;;;;;108.75;107.75;11.20;62.10;;;;;;5053150;28;8811;-65
2021/11/22 07:53:54;;;;;;;;;111.50;108.50;10.90;63.20;;;;;;5053864;28;8833;-65
2021/11/22 07:56:20;;;;;;;;;111.50;109.75;10.90;64.00;;;;;;5054053;28;8848;-64
2021/11/22 07:58:46;;;;;;;;;108.25;103.50;11.20;63.60;;;;;;5054317;28;8775;-67
2021/11/22 08:01:12;;;;;;;;;95.25;93.50;11.20;62.70;;;;;;5054537;28;8763;-67
2021/11/22 08:03:38;;;;;;;;;100.50;99.25;11.00;63.90;;;;;;5054053;28;8879;-61
2021/11/22 08:06:04;;;;;;;;;101.50;100.50;10.60;64.90;;;;;;5054159;28;8771;-69
2021/11/22 08:08:32;;;;;;;;;98.25;94.25;10.80;65.00;;;;;;5053821;28;8787;-66
2021/11/22 08:13:34;;;;;;;;;118.25;113.75;11.20;64.20;;;;;;5051343;28;8837;-66
2021/11/22 08:16:03;;;;;;;;;113.00;111.00;11.60;63.30;;;;;;5052673;28;8774;-68
2021/11/22 08:18:29;;;;;;;;;110.75;109.25;11.70;62.30;;;;;;5052990;28;8788;-69
2021/11/22 08:20:55;;;;;;;;;105.75;105.25;11.80;61.90;;;;;;5052709;28;9354;-69
2021/11/22 08:23:22;;;;;;;;;100.25;99.00;11.80;61.90;;;;;;5052709;28;8778;-66
2021/11/22 08:25:49;;;;;;;;;103.75;101.50;11.90;61.50;;;;;;5050488;28;8795;-66
2021/11/22 08:28:16;;;;;;;;;105.00;102.50;12.00;61.70;;;;;;5049972;28;8828;-61
2021/11/22 08:30:42;;;;;;;;;100.00;97.25;11.90;61.80;;;;;;5056417;28;8832;-61
2021/11/22 08:33:10;;;;;;;;;87.25;80.75;11.60;62.70;;;;;;5056513;28;8819;-61
2021/11/22 08:35:35;;;;;;;;;93.00;88.50;11.70;62.40;;;;;;5056471;28;8822;-67
2021/11/22 08:38:02;;;;;;;;;86.25;82.50;11.60;63.00;;;;;;5056183;28;8741;-69
2021/11/22 08:40:29;;;;;;;;;94.75;93.75;11.80;62.40;;;;;;5056282;28;8779;-68
2021/11/22 08:42:55;;;;;;;;;91.00;88.00;11.40;63.60;;;;;;5056473;28;8863;-67
2021/11/22 08:45:22;;;;;;;;;89.00;85.50;11.30;64.00;;;;;;5056025;28;8740;-68
2021/11/22 08:47:50;;;;;;;;;92.00;88.50;11.10;65.50;;;;;;5055959;28;8767;-64
2021/11/22 08:50:17;;;;;;;;;85.50;80.00;11.50;63.40;;;;;;5056033;28;8783;-65
2021/11/22 08:52:44;;;;;;;;;92.50;86.25;11.50;63.70;;;;;;5055904;28;8762;-66
2021/11/22 08:55:11;;;;;;;;;98.50;97.25;11.70;62.70;;;;;;5055952;28;8749;-68
2021/11/22 08:57:38;;;;;;;;;93.25;90.75;11.50;63.60;;;;;;5056416;28;8763;-68
2021/11/22 09:00:08;;;;;;;;;93.25;91.25;11.60;63.40;;;;;;5056344;28;8788;-65
2021/11/22 09:02:34;;;;;;;;;87.75;79.50;11.60;63.40;;;;;;5056962;28;8759;-71
2021/11/22 09:05:00;;;;;;;;;96.50;95.75;11.70;63.10;;;;;;5056844;28;8789;-69
2021/11/22 09:07:26;;;;;;;;;88.25;86.00;11.80;62.80;;;;;;5056996;28;8779;-72
2021/11/22 09:09:52;;;;;;;;;94.50;91.50;12.00;62.50;;;;;;5056948;28;8794;-71
2021/11/22 09:12:17;;;;;;;;;104.00;103.25;12.20;61.80;;;;;;5057176;28;8799;-73
2021/11/22 09:14:43;;;;;;;;;108.25;104.25;12.40;61.00;;;;;;5056805;28;8826;-65
2021/11/22 09:17:09;;;;;;;;;117.25;114.25;12.40;60.90;;;;;;5056765;28;8779;-65
2021/11/22 09:19:35;;;;;;;;;130.75;127.00;12.30;61.60;;;;;;5056954;28;8879;-65
2021/11/22 09:22:01;;;;;;;;;131.75;127.00;12.50;61.20;;;;;;5056717;28;8775;-65
2021/11/22 09:24:27;;;;;;;;;128.50;125.75;12.50;61.10;;;;;;5056957;28;8890;-65
2021/11/22 09:26:53;;;;;;;;;122.75;118.75;12.70;60.70;;;;;;5037951;28;8774;-68
2021/11/22 09:29:19;;;;;;;;;127.25;122.50;12.70;60.20;;;;;;5054489;28;8848;-65
2021/11/22 09:31:44;;;;;;;;;116.50;114.75;12.30;61.10;;;;;;5055092;28;8772;-66
2021/11/22 09:34:10;;;;;;;;;100.25;99.50;12.50;61.30;;;;;;5055087;28;8816;-68
2021/11/22 09:36:36;;;;;;;;;107.00;103.50;12.20;61.80;;;;;;5055304;28;8753;-65
2021/11/22 09:39:03;;;;;;;;;113.00;108.50;12.30;62.10;;;;;;5055540;28;8787;-71
2021/11/22 09:41:29;;;;;;;;;111.00;110.00;12.50;61.30;;;;;;5056587;28;9443;-70
2021/11/22 09:43:57;;;;;;;;;130.75;129.00;12.80;61.00;;;;;;5056375;28;8756;-70
2021/11/22 09:46:24;;;;;;;;;108.75;102.25;13.00;60.00;;;;;;5056513;28;8772;-65
2021/11/22 09:48:51;;;;;;;;;109.25;100.25;13.10;59.60;;;;;;5056264;28;8814;-67
2021/11/22 09:51:17;;;;;;;;;105.00;104.75;12.80;60.90;;;;;;5056874;28;8796;-73
2021/11/22 09:53:42;;;;;;;;;92.25;91.00;12.70;61.20;;;;;;5056141;28;8797;-66
2021/11/22 09:56:11;;;;;;;;;103.25;100.75;12.50;61.90;;;;;;5043543;28;8789;-65
2021/11/22 09:58:38;;;;;;;;;104.50;101.00;12.50;62.60;;;;;;5036357;28;8761;-66
2021/11/22 10:01:10;;;;;;;;;92.75;88.75;12.90;62.00;;;;;;5036164;28;8940;-68
2021/11/22 10:03:36;;;;;;;;;89.25;87.75;12.80;61.60;;;;;;5036366;28;8773;-72
2021/11/22 10:06:02;;;;;;;;;93.50;92.25;13.00;61.10;;;;;;5036031;28;9593;-69
2021/11/22 10:08:36;;;;;;;;;88.50;87.50;13.10;60.40;;;;;;5035914;28;8871;-70
2021/11/22 10:11:02;;;;;;;;;96.00;94.25;13.20;60.50;;;;;;5036903;28;8884;-69
2021/11/22 10:13:43;;;;;;;;;87.00;81.75;13.40;59.90;;;;;;5055423;28;8820;-65
2021/11/22 10:16:11;;;;;;;;;89.75;86.00;13.30;60.10;;;;;;5054589;28;8873;-68
2021/11/22 10:18:45;;;;;;;;;88.50;85.75;13.20;60.50;;;;;;5055076;28;8770;-65
2021/11/22 10:21:14;;;;;;;;;95.75;95.75;12.70;61.90;;;;;;5055826;28;8799;-65
2021/11/22 10:23:44;;;;;;;;;92.75;91.75;13.20;61.10;;;;;;5055810;28;9441;-64
2021/11/22 10:26:14;;;;;;;;;97.00;95.50;13.40;60.50;;;;;;5042495;28;8887;-67
2021/11/22 10:28:48;;;;;;;;;98.50;98.25;14.00;59.90;;;;;;5035407;28;8778;-66
2021/11/22 10:31:16;;;;;;;;;101.00;96.75;14.20;58.00;;;;;;5035701;28;8766;-65
2021/11/22 10:33:44;;;;;;;;;95.75;95.00;14.60;56.80;;;;;;5035390;28;8801;-66
2021/11/22 10:36:13;;;;;;;;;98.00;92.00;15.50;54.30;;;;;;5035338;28;8785;-66
2021/11/22 10:38:42;;;;;;;;;89.50;89.00;15.70;52.50;;;;;;5035636;28;8761;-67
2021/11/22 10:41:18;;;;;;;;;112.75;111.00;15.40;53.40;;;;;;5035442;28;8766;-66
2021/11/22 10:43:51;;;;;;;;;115.75;114.75;14.90;54.80;;;;;;5035228;28;8787;-65
2021/11/22 10:46:50;;;;;;;;;110.25;109.75;14.60;55.90;;;;;;5035253;28;8774;-67
2021/11/22 10:49:17;;;;;;;;;122.50;120.00;14.70;55.90;;;;;;5033197;28;9404;-65
2021/11/22 10:51:47;;;;;;;;;112.50;110.25;14.50;56.70;;;;;;5034647;28;9462;-67
2021/11/22 10:54:15;;;;;;;;;102.75;102.00;14.60;56.30;;;;;;5035303;28;8805;-67
2021/11/22 10:56:44;;;;;;;;;107.25;105.50;14.50;56.50;;;;;;5035221;28;8773;-67
2021/11/22 10:59:14;;;;;;;;;109.75;107.00;14.50;56.90;;;;;;5035264;28;9423;-69
2021/11/22 11:01:52;;;;;;;;;111.25;110.75;15.00;56.10;;;;;;5035147;28;8817;-72
2021/11/22 11:04:34;;;;;;;;;126.00;119.25;15.50;55.60;;;;;;5035121;28;8786;-71
2021/11/22 11:07:05;;;;;;;;;140.00;130.75;15.70;54.10;;;;;;5035100;28;8781;-69
2021/11/22 11:09:36;;;;;;;;;128.50;126.50;16.70;52.80;;;;;;5034744;28;8788;-70
2021/11/22 11:12:04;;;;;;;;;132.75;125.00;18.60;48.10;;;;;;5034772;28;8796;-68
2021/11/22 11:14:32;;;;;;;;;120.75;116.00;20.80;43.80;;;;;;5034648;28;8911;-66
2021/11/22 11:17:26;;;;;;;;;118.00;111.25;23.00;39.50;;;;;;5034695;28;8789;-68
2021/11/22 11:19:55;;;;;;;;;110.50;109.75;25.80;34.20;;;;;;5034838;28;8785;-68
2021/11/22 11:22:23;;;;;;;;;119.25;118.50;24.50;32.20;;;;;;5034817;28;8754;-67
2021/11/22 11:24:49;;;;;;;;;116.25;115.50;22.00;36.00;;;;;;5034470;28;8913;-67
2021/11/22 11:27:15;;;;;;;;;109.00;105.25;20.70;39.50;;;;;;5034699;28;9004;-66
2021/11/22 11:29:42;;;;;;;;;121.25;119.00;19.80;40.80;;;;;;5034485;28;8793;-67
2021/11/22 11:32:08;;;;;;;;;117.50;116.75;19.30;41.90;;;;;;5034489;28;8773;-67
2021/11/22 11:34:39;;;;;;;;;118.00;117.00;19.00;43.20;;;;;;5034351;28;8797;-67
2021/11/22 11:37:42;;;;;;;;;127.00;124.75;18.80;43.00;;;;;;5034299;28;8753;-67
2021/11/22 11:40:38;;;;;;;;;143.75;141.25;18.00;45.10;;;;;;5034374;28;8778;-64
2021/11/22 11:43:36;;;;;;;;;127.00;125.50;16.90;47.90;;;;;;5034629;28;8770;-63
2021/11/22 11:46:20;;;;;;;;;130.25;126.75;16.60;49.30;;;;;;5034510;28;8777;-64
2021/11/22 11:48:58;;;;;;;;;129.50;129.25;16.70;49.20;;;;;;5034112;28;8805;-63
2021/11/22 11:51:45;;;;;;;;;146.75;143.00;16.30;50.40;;;;;;5034379;28;9487;-64
2021/11/22 11:54:27;;;;;;;;;135.75;135.25;15.90;51.70;;;;;;5034020;28;8923;-70
2021/11/22 11:57:06;;;;;;;;;145.00;144.25;15.70;52.70;;;;;;5041801;28;8805;-71
2021/11/22 11:59:38;;;;;;;;;134.75;132.25;15.60;53.10;;;;;;5049142;28;8761;-70
2021/11/22 12:02:34;;;;;;;;;152.25;148.00;15.50;53.50;;;;;;5053048;28;8751;-69
2021/11/22 12:05:01;;;;;;;;;152.50;150.50;15.60;53.60;;;;;;4995941;28;8909;-71
2021/11/22 12:07:36;;;;;;;;;128.25;126.00;15.80;53.20;;;;;;4996610;28;8774;-70
2021/11/22 12:10:40;;;;;;;;;135.75;134.50;15.30;53.70;;;;;;4996615;28;8816;-70
2021/11/22 12:13:09;;;;;;;;;137.25;133.50;14.70;56.20;;;;;;4936301;29;8836;-69
2021/11/22 12:15:37;;;;;;;;;159.00;152.75;14.80;55.90;;;;;;4932966;29;8896;-68
2021/11/22 12:18:11;;;;;;;;;148.75;143.75;14.90;55.90;;;;;;4937145;29;8785;-70
2021/11/22 12:20:41;;;;;;;;;150.25;147.50;14.70;56.20;;;;;;4937050;29;8790;-69
2021/11/22 12:23:12;;;;;;;;;148.50;143.00;14.40;57.10;;;;;;4936929;29;9570;-71
2021/11/22 12:25:43;;;;;;;;;152.75;152.50;14.60;57.20;;;;;;4936898;29;8917;-70
2021/11/22 12:28:23;;;;;;;;;143.00;139.50;14.70;56.90;;;;;;4934637;29;8871;-68